createdAt,value
2023-02-11T00:01:13.031Z,99427.28
2023-02-11T00:03:40.486Z,99424.95
2023-02-11T00:06:11.063Z,99427.02
2023-02-11T00:08:39.088Z,99427.44
2023-02-11T00:11:07.334Z,99430.80
2023-02-11T00:13:35.181Z,99431.40
2023-02-11T00:16:06.140Z,99425.54
2023-02-11T00:18:33.630Z,99422.52
2023-02-11T00:21:07.972Z,99420.67
2023-02-11T00:23:35.924Z,99421.30
2023-02-11T00:26:04.440Z,99424.50
2023-02-11T00:28:32.131Z,99420.39
2023-02-11T00:31:01.624Z,99423.41
2023-02-11T00:33:29.765Z,99422.05
2023-02-11T00:35:57.093Z,99423.77
2023-02-11T00:38:24.711Z,99421.56
2023-02-11T00:40:52.139Z,99422.80
2023-02-11T00:43:19.878Z,99414.66
2023-02-11T00:45:47.487Z,99411.91
2023-02-11T00:48:15.946Z,99411.80
2023-02-11T00:50:43.528Z,99408.72
2023-02-11T00:53:11.220Z,99404.67
2023-02-11T00:55:39.128Z,99398.17
2023-02-11T00:58:07.670Z,99396.75
2023-02-11T01:00:36.039Z,99393.89
2023-02-11T01:03:03.490Z,99395.03
2023-02-11T01:05:31.089Z,99395.84
2023-02-11T01:07:58.615Z,99397.15
2023-02-11T01:10:26.078Z,99397.03
2023-02-11T01:12:53.617Z,99397.97
2023-02-11T01:15:21.575Z,99397.84
2023-02-11T01:17:50.349Z,99400.93
2023-02-11T01:20:23.930Z,99393.73
2023-02-11T01:22:51.457Z,99390.11
2023-02-11T01:25:19.049Z,99383.28
2023-02-11T01:27:46.588Z,99380.80
2023-02-11T01:30:14.466Z,99371.52
2023-02-11T01:32:42.236Z,99375.54
2023-02-11T01:35:10.088Z,99370.83
2023-02-11T01:37:37.767Z,99366.72
2023-02-11T01:40:07.757Z,99368.50
2023-02-11T01:42:35.405Z,99367.47
2023-02-11T01:45:06.575Z,99359.13
2023-02-11T01:47:34.005Z,99350.79
2023-02-11T01:50:02.127Z,99342.81
2023-02-11T01:52:38.197Z,99343.63
2023-02-11T01:55:28.664Z,99338.07
2023-02-11T01:58:00.127Z,99344.72
2023-02-11T02:00:33.892Z,99337.67
2023-02-11T02:03:08.052Z,99334.59
2023-02-11T02:05:55.194Z,99336.52
2023-02-11T02:08:38.308Z,99336.52
2023-02-11T02:11:06.768Z,99338.28
2023-02-11T02:13:35.742Z,99337.83
2023-02-11T02:16:15.663Z,99336.98
2023-02-11T02:19:17.110Z,99344.02
2023-02-11T02:22:16.815Z,99335.47
2023-02-11T02:25:17.129Z,99328.05
2023-02-11T02:27:51.836Z,99328.22
2023-02-11T02:30:35.336Z,99331.13
2023-02-11T02:33:26.532Z,99330.36
2023-02-11T02:36:08.496Z,99327.22
2023-02-11T02:38:57.863Z,99324.20
2023-02-11T02:41:28.312Z,99316.83
2023-02-11T02:43:56.170Z,99315.61
2023-02-11T02:46:29.503Z,99315.22
2023-02-11T02:48:57.932Z,99317.59
2023-02-11T02:51:28.893Z,99320.19
2023-02-11T02:54:31.745Z,99319.45
2023-02-11T02:57:11.919Z,99316.98
2023-02-11T02:59:54.717Z,99308.31
2023-02-11T03:02:28.589Z,99312.20
2023-02-11T03:05:05.738Z,99310.09
2023-02-11T03:07:45.784Z,99311.02
2023-02-11T03:10:28.585Z,99307.87
2023-02-11T03:12:57.014Z,99307.33
2023-02-11T03:15:26.899Z,99306.98
2023-02-11T03:17:57.912Z,99302.50
2023-02-11T03:20:27.393Z,99302.34
2023-02-11T03:22:58.200Z,99302.83
2023-02-11T03:25:31.660Z,99302.34
2023-02-11T03:28:05.607Z,99295.53
2023-02-11T03:30:36.681Z,99302.50
2023-02-11T03:33:19.218Z,99309.25
2023-02-11T03:36:02.088Z,99304.55
2023-02-11T03:38:37.960Z,99309.03
2023-02-11T03:41:07.008Z,99306.92
2023-02-11T03:43:42.810Z,99308.48
2023-02-11T03:46:11.430Z,99308.97
2023-02-11T03:48:41.727Z,99308.14
2023-02-11T03:51:10.927Z,99299.33
2023-02-11T03:53:41.435Z,99302.04
2023-02-11T03:56:12.628Z,99303.48
2023-02-11T03:58:40.190Z,99303.00
2023-02-11T04:01:09.292Z,99295.84
2023-02-11T04:03:36.926Z,99296.30
2023-02-11T04:06:04.811Z,99298.08
2023-02-11T04:08:32.301Z,99302.78
2023-02-11T04:10:59.862Z,99293.63
2023-02-11T04:13:27.367Z,99298.27
2023-02-11T04:15:55.103Z,99291.11
2023-02-11T04:18:22.614Z,99294.30
2023-02-11T04:20:50.821Z,99291.86
2023-02-11T04:23:18.558Z,99282.89
2023-02-11T04:25:45.963Z,99283.04
2023-02-11T04:28:14.076Z,99281.74
2023-02-11T04:30:41.720Z,99273.59
2023-02-11T04:33:09.249Z,99277.48
2023-02-11T04:35:36.580Z,99277.63
2023-02-11T04:38:04.243Z,99271.30
2023-02-11T04:40:31.780Z,99273.19
2023-02-11T04:42:58.973Z,99271.08
2023-02-11T04:45:26.490Z,99265.41
2023-02-11T04:47:53.857Z,99265.55
2023-02-11T04:50:21.421Z,99266.70
2023-02-11T04:52:49.051Z,99263.77
2023-02-11T04:55:16.546Z,99259.26
2023-02-11T04:57:44.076Z,99253.73
2023-02-11T05:00:12.068Z,99250.44
2023-02-11T05:02:39.799Z,99252.70
2023-02-11T05:05:07.759Z,99252.03
2023-02-11T05:07:35.251Z,99255.08
2023-02-11T05:10:03.204Z,99254.41
2023-02-11T05:12:30.672Z,99250.45
2023-02-11T05:14:58.054Z,99250.34
2023-02-11T05:17:25.469Z,99254.04
2023-02-11T05:19:52.905Z,99250.63
2023-02-11T05:22:21.435Z,99260.64
2023-02-11T05:24:49.287Z,99256.89
2023-02-11T05:27:16.621Z,99255.45
2023-02-11T05:29:44.492Z,99255.81
2023-02-11T05:32:11.904Z,99256.97
2023-02-11T05:34:39.639Z,99260.11
2023-02-11T05:37:07.055Z,99255.16
2023-02-11T05:39:34.388Z,99262.67
2023-02-11T05:42:01.831Z,99260.27
2023-02-11T05:44:31.059Z,99254.81
2023-02-11T05:46:58.530Z,99257.03
2023-02-11T05:49:26.046Z,99256.47
2023-02-11T05:51:53.624Z,99254.59
2023-02-11T05:54:21.173Z,99255.50
2023-02-11T05:56:48.580Z,99257.36
2023-02-11T05:59:16.319Z,99260.80
2023-02-11T06:01:43.778Z,99251.66
2023-02-11T06:04:11.177Z,99242.36
2023-02-11T06:06:38.845Z,99249.16
2023-02-11T06:09:06.241Z,99247.64
2023-02-11T06:11:33.862Z,99244.72
2023-02-11T06:14:01.679Z,99245.49
2023-02-11T06:16:29.400Z,99240.70
2023-02-11T06:18:56.788Z,99247.66
2023-02-11T06:21:36.366Z,99248.78
2023-02-11T06:23:55.456Z,99249.64
2023-02-11T06:26:24.555Z,99249.62
2023-02-11T06:28:51.967Z,99251.04
2023-02-11T06:31:19.645Z,99253.70
2023-02-11T06:33:47.156Z,99252.63
2023-02-11T06:36:17.389Z,99254.95
2023-02-11T06:38:46.668Z,99254.84
2023-02-11T06:41:16.064Z,99252.70
2023-02-11T06:43:43.485Z,99253.34
2023-02-11T06:46:10.807Z,99253.17
2023-02-11T06:48:43.688Z,99246.31
2023-02-11T06:51:11.563Z,99250.27
2023-02-11T06:53:42.380Z,99249.11
2023-02-11T06:56:12.060Z,99239.48
2023-02-11T06:58:39.426Z,99242.42
2023-02-11T07:01:08.930Z,99242.59
2023-02-11T07:03:38.404Z,99239.80
2023-02-11T07:06:07.310Z,99236.70
2023-02-11T07:08:36.318Z,99239.14
2023-02-11T07:11:13.421Z,99232.41
2023-02-11T07:13:40.834Z,99233.84
2023-02-11T07:16:11.702Z,99226.72
2023-02-11T07:18:39.311Z,99229.77
2023-02-11T07:21:11.617Z,99221.05
2023-02-11T07:23:40.406Z,99220.91
2023-02-11T07:26:10.359Z,99224.72
2023-02-11T07:28:38.323Z,99222.41
2023-02-11T07:31:10.689Z,99223.81
2023-02-11T07:33:38.268Z,99214.86
2023-02-11T07:36:07.038Z,99215.89
2023-02-11T07:38:34.766Z,99210.77
2023-02-11T07:41:08.861Z,99215.80
2023-02-11T07:43:37.821Z,99222.86
2023-02-11T07:46:07.576Z,99215.75
2023-02-11T07:48:35.463Z,99217.17
2023-02-11T07:51:12.060Z,99213.80
2023-02-11T07:53:39.976Z,99218.66
2023-02-11T07:56:09.201Z,99216.64
2023-02-11T07:58:37.190Z,99216.14
2023-02-11T08:01:14.413Z,99215.96
2023-02-11T08:03:42.636Z,99217.78
2023-02-11T08:06:13.068Z,99213.58
2023-02-11T08:08:45.222Z,99221.71
2023-02-11T08:11:18.497Z,99212.08
2023-02-11T08:13:46.021Z,99205.20
2023-02-11T08:16:29.206Z,99203.66
2023-02-11T08:18:59.212Z,99195.91
2023-02-11T08:21:26.978Z,99193.45
2023-02-11T08:23:55.017Z,99193.95
2023-02-11T08:26:25.646Z,99188.67
2023-02-11T08:28:56.045Z,99188.45
2023-02-11T08:31:36.164Z,99185.79
2023-02-11T08:34:04.252Z,99185.83
2023-02-11T08:36:37.082Z,99178.79
2023-02-11T08:39:19.051Z,99163.50
2023-02-11T08:41:40.855Z,99170.13
2023-02-11T08:44:08.402Z,99173.05
2023-02-11T08:46:35.916Z,99178.86
2023-02-11T08:49:03.258Z,99177.73
2023-02-11T08:51:30.966Z,99174.73
2023-02-11T08:53:59.384Z,99166.01
2023-02-11T08:56:30.288Z,99162.86
2023-02-11T08:58:57.495Z,99163.17
2023-02-11T09:01:28.139Z,99160.67
2023-02-11T09:03:56.097Z,99170.13
2023-02-11T09:06:24.846Z,99160.27
2023-02-11T09:08:54.399Z,99158.88
2023-02-11T09:11:30.783Z,99159.41
2023-02-11T09:13:58.275Z,99158.31
2023-02-11T09:16:30.342Z,99152.53
2023-02-11T09:18:58.674Z,99158.33
2023-02-11T09:21:26.478Z,99153.63
2023-02-11T09:23:54.074Z,99144.30
2023-02-11T09:26:25.322Z,99130.92
2023-02-11T09:28:53.031Z,99122.19
2023-02-11T09:31:23.347Z,99127.43
2023-02-11T09:33:53.975Z,99136.00
2023-02-11T09:36:30.815Z,99130.92
2023-02-11T09:39:00.371Z,99122.63
2023-02-11T09:41:52.765Z,99116.18
2023-02-11T09:44:24.274Z,99126.66
2023-02-11T09:47:03.371Z,99107.31
2023-02-11T09:49:42.223Z,99101.53
2023-02-11T09:52:48.548Z,99096.94
2023-02-11T09:55:21.334Z,99102.85
2023-02-11T09:57:50.095Z,99094.36
2023-02-11T10:00:24.505Z,99092.09
2023-02-11T10:03:10.823Z,99081.79
2023-02-11T10:05:57.084Z,99071.15
2023-02-11T10:08:40.198Z,99073.14
2023-02-11T10:11:31.625Z,99073.69
2023-02-11T10:14:04.905Z,99068.54
2023-02-11T10:16:35.932Z,99077.23
2023-02-11T10:19:13.590Z,99074.47
2023-02-11T10:22:03.065Z,99080.70
2023-02-11T10:24:31.419Z,99088.17
2023-02-11T10:26:59.231Z,99083.67
2023-02-11T10:29:39.534Z,99075.42
2023-02-11T10:32:13.515Z,99061.70
2023-02-11T10:34:42.176Z,99051.08
2023-02-11T10:37:12.550Z,99049.63
2023-02-11T10:39:40.973Z,99052.66
2023-02-11T10:42:11.249Z,99044.50
2023-02-11T10:44:45.155Z,99032.87
2023-02-11T10:47:16.428Z,99021.73
2023-02-11T10:49:45.763Z,99028.37
2023-02-11T10:52:19.229Z,99018.97
2023-02-11T10:55:06.877Z,99017.23
2023-02-11T10:57:37.004Z,99016.18
2023-02-11T11:00:38.484Z,99013.27
2023-02-11T11:03:23.904Z,99014.77
2023-02-11T11:05:56.062Z,99006.80
2023-02-11T11:08:41.725Z,99006.61
2023-02-11T11:11:12.305Z,99004.69
2023-02-11T11:13:57.257Z,98993.47
2023-02-11T11:16:31.834Z,98988.72
2023-02-11T11:19:12.959Z,98982.05
2023-02-11T11:21:49.365Z,98976.23
2023-02-11T11:24:24.979Z,98967.61
2023-02-11T11:26:55.765Z,98958.53
2023-02-11T11:29:32.385Z,98952.64
2023-02-11T11:32:05.869Z,98949.02
2023-02-11T11:34:45.062Z,98946.37
2023-02-11T11:37:27.197Z,98944.30
2023-02-11T11:40:01.249Z,98939.08
2023-02-11T11:42:33.724Z,98946.97
2023-02-11T11:45:19.572Z,98931.05
2023-02-11T11:48:05.822Z,98929.31
2023-02-11T11:50:50.008Z,98933.59
2023-02-11T11:53:39.501Z,98921.48
2023-02-11T11:56:19.851Z,98916.98
2023-02-11T11:58:48.089Z,98911.58
2023-02-11T12:01:35.891Z,98915.20
2023-02-11T12:04:19.107Z,98915.14
2023-02-11T12:07:25.862Z,98905.95
2023-02-11T12:10:16.424Z,98906.41
2023-02-11T12:12:50.958Z,98900.12
2023-02-11T12:15:43.103Z,98903.91
2023-02-11T12:18:38.280Z,98900.94
2023-02-11T12:21:15.814Z,98892.27
2023-02-11T12:23:55.693Z,98884.30
2023-02-11T12:26:26.214Z,98880.77
2023-02-11T12:29:25.803Z,98871.42
2023-02-11T12:32:19.617Z,98865.04
2023-02-11T12:35:19.654Z,98858.72
2023-02-11T12:37:50.732Z,98864.17
2023-02-11T12:40:24.930Z,98852.57
2023-02-11T12:43:21.744Z,98848.70
2023-02-11T12:46:10.281Z,98849.74
2023-02-11T12:48:47.203Z,98852.26
2023-02-11T12:51:19.045Z,98842.42
2023-02-11T12:54:14.415Z,98845.17
2023-02-11T12:57:05.601Z,98845.84
2023-02-11T13:00:04.360Z,98843.57
2023-02-11T13:02:41.459Z,98833.83
2023-02-11T13:05:18.424Z,98837.53
2023-02-11T13:07:47.370Z,98829.58
2023-02-11T13:10:28.396Z,98821.27
2023-02-11T13:13:15.659Z,98821.91
2023-02-11T13:15:48.932Z,98819.53
2023-02-11T13:18:32.475Z,98814.55
2023-02-11T13:21:18.032Z,98816.83
2023-02-11T13:24:15.611Z,98812.19
2023-02-11T13:26:52.968Z,98812.67
2023-02-11T13:29:23.909Z,98805.97
2023-02-11T13:31:57.057Z,98809.00
2023-02-11T13:34:47.282Z,98798.94
2023-02-11T13:37:23.600Z,98806.38
2023-02-11T13:40:06.917Z,98794.80
2023-02-11T13:42:38.065Z,98799.05
2023-02-11T13:45:09.188Z,98802.30
2023-02-11T13:47:37.485Z,98804.45
2023-02-11T13:50:06.821Z,98802.24
2023-02-11T13:52:36.816Z,98804.00
2023-02-11T13:55:21.238Z,98805.11
2023-02-11T13:58:11.456Z,98800.85
2023-02-11T14:00:46.482Z,98768.91
2023-02-11T14:03:36.709Z,98800.27
2023-02-11T14:09:22.416Z,98804.50
2023-02-11T14:11:56.757Z,98804.87
2023-02-11T14:14:33.083Z,98803.75
2023-02-11T14:17:10.713Z,98795.97
2023-02-11T14:20:01.267Z,98791.17
2023-02-11T14:22:44.374Z,98790.45
2023-02-11T14:25:20.906Z,98784.83
2023-02-11T14:27:59.363Z,98780.43
2023-02-11T14:30:44.309Z,98771.59
2023-02-11T14:33:37.470Z,98765.44
2023-02-11T14:36:25.034Z,98769.77
2023-02-11T14:39:03.021Z,98766.84
2023-02-11T14:41:33.404Z,98764.92
2023-02-11T14:44:07.092Z,98759.87
2023-02-11T14:46:34.819Z,98752.73
2023-02-11T14:49:04.755Z,98751.63
2023-02-11T14:51:38.756Z,98745.53
2023-02-11T14:54:16.556Z,98747.60
2023-02-11T14:56:46.956Z,98746.56
2023-02-11T14:59:20.420Z,98749.21
2023-02-11T15:04:46.544Z,98746.48
2023-02-11T15:07:21.506Z,98743.34
2023-02-11T15:09:55.031Z,98750.30
2023-02-11T15:12:29.175Z,98743.84
2023-02-11T15:15:01.162Z,98740.67
2023-02-11T15:17:31.405Z,98742.95
2023-02-11T15:20:02.609Z,98745.22
2023-02-11T15:22:36.910Z,98748.38
2023-02-11T15:25:15.201Z,98748.91
2023-02-11T15:27:45.870Z,98746.03
2023-02-11T15:30:32.983Z,98747.15
2023-02-11T15:33:05.210Z,98748.89
2023-02-11T15:35:38.755Z,98745.81
2023-02-11T15:38:16.955Z,98742.53
2023-02-11T15:41:20.401Z,98739.81
2023-02-11T15:54:34.626Z,98726.56
2023-02-11T16:00:02.197Z,98729.55
2023-02-11T16:02:40.030Z,98736.24
2023-02-11T16:05:09.489Z,98733.80
2023-02-11T16:07:51.922Z,98732.39
2023-02-11T16:10:23.206Z,98742.47
2023-02-11T16:12:57.772Z,98740.69
2023-02-11T16:15:49.485Z,98739.98
2023-02-11T16:18:37.809Z,98730.22
2023-02-11T16:21:00.988Z,98732.34
2023-02-11T16:23:34.539Z,98738.66
2023-02-11T16:26:11.643Z,98735.78
2023-02-11T16:28:40.402Z,98735.58
2023-02-11T16:31:09.237Z,98730.50
2023-02-11T16:33:36.906Z,98733.89
2023-02-11T16:36:13.596Z,98733.28
2023-02-11T16:38:41.139Z,98736.30
2023-02-11T16:41:12.483Z,98729.70
2023-02-11T16:43:39.964Z,98727.05
2023-02-11T16:46:08.784Z,98732.57
2023-02-11T16:48:37.589Z,98728.80
2023-02-11T16:51:07.184Z,98730.96
2023-02-11T16:53:34.506Z,98731.77
2023-02-11T16:56:02.858Z,98723.75
2023-02-11T16:58:30.035Z,98720.51
2023-02-11T17:00:57.862Z,98721.97
2023-02-11T17:03:29.894Z,98721.22
2023-02-11T17:05:56.182Z,98714.02
2023-02-11T17:08:23.848Z,98708.63
2023-02-11T17:10:52.026Z,98707.13
2023-02-11T17:13:19.618Z,98707.36
2023-02-11T17:15:52.525Z,98700.53
2023-02-11T17:18:21.951Z,98692.14
2023-02-11T17:20:50.110Z,98683.23
2023-02-11T17:23:17.528Z,98679.41
2023-02-11T17:25:46.038Z,98678.33
2023-02-11T17:28:13.698Z,98677.00
2023-02-11T17:30:55.290Z,98675.55
2023-02-11T17:33:27.220Z,98667.34
2023-02-11T17:35:55.225Z,98664.52
2023-02-11T17:38:33.800Z,98664.66
2023-02-11T17:41:20.946Z,98667.63
2023-02-11T17:44:12.611Z,98659.27
2023-02-11T17:46:45.361Z,98657.77
2023-02-11T17:49:47.646Z,98656.16
2023-02-11T17:52:52.912Z,98657.09
2023-02-11T17:55:22.353Z,98652.44
2023-02-11T17:57:55.345Z,98654.37
2023-02-11T18:00:23.311Z,98661.95
2023-02-11T18:02:50.786Z,98666.29
2023-02-11T18:05:20.418Z,98667.77
2023-02-11T18:07:48.314Z,98671.30
2023-02-11T18:10:15.665Z,98671.16
2023-02-11T18:12:43.399Z,98671.77
2023-02-11T18:15:11.647Z,98681.06
2023-02-11T18:17:40.408Z,98679.33
2023-02-11T18:20:10.367Z,98683.89
2023-02-11T18:22:40.487Z,98681.02
2023-02-11T18:25:08.842Z,98669.75
2023-02-11T18:27:36.677Z,98677.53
2023-02-11T18:30:07.411Z,98678.95
2023-02-11T18:32:37.009Z,98679.52
2023-02-11T18:35:14.397Z,98679.32
2023-02-11T18:37:42.107Z,98681.73
2023-02-11T18:40:10.822Z,98679.41
2023-02-11T18:42:49.424Z,98684.98
2023-02-11T18:45:19.396Z,98689.03
2023-02-11T18:47:47.482Z,98689.60
2023-02-11T18:50:18.155Z,98688.38
2023-02-11T18:52:49.588Z,98688.66
2023-02-11T18:55:20.884Z,98683.37
2023-02-11T18:57:49.306Z,98682.48
2023-02-11T19:00:17.993Z,98687.77
2023-02-11T19:02:47.862Z,98682.20
2023-02-11T19:05:15.541Z,98682.72
2023-02-11T19:07:43.357Z,98679.47
2023-02-11T19:10:13.443Z,98678.47
2023-02-11T19:12:48.398Z,98681.39
2023-02-11T19:15:16.029Z,98676.31
2023-02-11T19:17:45.137Z,98682.34
2023-02-11T19:20:12.824Z,98681.22
2023-02-11T19:22:40.883Z,98676.17
2023-02-11T19:25:08.816Z,98673.24
2023-02-11T19:27:36.361Z,98676.08
2023-02-11T19:30:04.658Z,98676.30
2023-02-11T19:32:32.192Z,98675.19
2023-02-11T19:34:59.541Z,98673.80
2023-02-11T19:37:29.843Z,98666.89
2023-02-11T19:39:57.690Z,98668.20
2023-02-11T19:42:27.692Z,98660.52
2023-02-11T19:44:56.776Z,98662.64
2023-02-11T19:47:26.405Z,98661.84
2023-02-11T19:49:54.142Z,98655.24
2023-02-11T19:52:21.696Z,98646.72
2023-02-11T19:54:50.828Z,98644.02
2023-02-11T19:57:21.096Z,98641.58
2023-02-11T19:59:49.351Z,98640.36
2023-02-11T20:02:18.100Z,98638.14
2023-02-11T20:04:48.298Z,98638.52
2023-02-11T20:07:16.181Z,98633.47
2023-02-11T20:09:43.667Z,98628.48
2023-02-11T20:12:12.055Z,98625.33
2023-02-11T20:14:39.834Z,98626.65
2023-02-11T20:17:07.386Z,98618.73
2023-02-11T20:19:35.232Z,98621.45
2023-02-11T20:22:18.268Z,98606.72
2023-02-11T20:24:42.093Z,98604.69
2023-02-11T20:27:12.211Z,98604.59
2023-02-11T20:29:39.863Z,98601.86
2023-02-11T20:32:08.319Z,98605.48
2023-02-11T20:34:36.741Z,98601.67
2023-02-11T20:37:05.380Z,98603.98
2023-02-11T20:39:36.683Z,98604.50
2023-02-11T20:42:04.286Z,98603.19
2023-02-11T20:44:33.610Z,98607.46
2023-02-11T20:47:03.633Z,98600.78
2023-02-11T20:49:31.375Z,98605.54
2023-02-11T20:52:00.429Z,98602.67
2023-02-11T20:54:28.282Z,98598.80
2023-02-11T20:56:57.579Z,98599.70
2023-02-11T20:59:25.088Z,98594.42
2023-02-11T21:01:54.954Z,98592.59
2023-02-11T21:04:25.231Z,98595.23
2023-02-11T21:06:55.516Z,98589.38
2023-02-11T21:09:30.141Z,98600.41
2023-02-11T21:11:57.890Z,98594.33
2023-02-11T21:14:26.502Z,98594.33
2023-02-11T21:16:54.300Z,98599.32
2023-02-11T21:19:24.132Z,98591.13
2023-02-11T21:21:52.428Z,98594.56
2023-02-11T21:24:21.965Z,98587.16
2023-02-11T21:26:49.659Z,98587.97
2023-02-11T21:29:19.644Z,98582.98
2023-02-11T21:31:47.383Z,98576.67
2023-02-11T21:34:15.565Z,98590.47
2023-02-11T21:36:50.362Z,98584.39
2023-02-11T21:39:18.538Z,98575.73
2023-02-11T21:44:35.312Z,98578.45
2023-02-11T21:47:04.014Z,98588.81
2023-02-11T21:49:31.982Z,98581.09
2023-02-11T21:52:00.130Z,98581.61
2023-02-11T21:54:31.293Z,98589.23
2023-02-11T21:57:01.279Z,98583.87
2023-02-11T21:59:31.166Z,98581.66
2023-02-11T22:01:59.014Z,98579.45
2023-02-11T22:04:26.608Z,98581.89
2023-02-11T22:06:54.047Z,98585.05
2023-02-11T22:09:21.547Z,98592.22
2023-02-11T22:11:49.297Z,98592.22
2023-02-11T22:14:16.831Z,98591.70
2023-02-11T22:16:45.406Z,98590.70
2023-02-11T22:19:12.773Z,98587.83
2023-02-11T22:21:42.768Z,98593.53
2023-02-11T22:24:10.410Z,98589.80
2023-02-11T22:26:37.932Z,98598.52
2023-02-11T22:29:05.789Z,98596.40
2023-02-11T22:31:34.664Z,98598.23
2023-02-11T22:34:04.901Z,98598.72
2023-02-11T22:36:35.562Z,98604.83
2023-02-11T22:39:05.931Z,98605.77
2023-02-11T22:41:34.057Z,98594.00
2023-02-11T22:44:02.561Z,98597.67
2023-02-11T22:46:30.737Z,98601.02
2023-02-11T22:48:58.467Z,98611.57
2023-02-11T22:51:28.186Z,98612.31
2023-02-11T22:54:03.843Z,98609.87
2023-02-11T22:56:34.942Z,98608.36
2023-02-11T22:59:04.468Z,98608.36
2023-02-11T23:01:32.435Z,98607.55
2023-02-11T23:04:01.985Z,98604.41
2023-02-11T23:06:29.396Z,98606.30
2023-02-11T23:08:56.962Z,98613.20
2023-02-11T23:11:29.179Z,98608.45
2023-02-11T23:13:59.022Z,98602.34
2023-02-11T23:16:33.585Z,98599.41
2023-02-11T23:21:59.568Z,98596.36
2023-02-11T23:24:27.588Z,98595.93
2023-02-11T23:26:55.221Z,98596.73
2023-02-11T23:29:23.012Z,98599.17
2023-02-11T23:31:50.851Z,98598.19
2023-02-11T23:34:20.538Z,98595.69
2023-02-11T23:36:48.226Z,98589.94
2023-02-11T23:39:16.490Z,98586.77
2023-02-11T23:41:44.769Z,98585.27
2023-02-11T23:44:12.358Z,98585.11
2023-02-11T23:46:39.726Z,98580.55
2023-02-11T23:49:07.091Z,98578.84
2023-02-11T23:51:34.633Z,98581.70
2023-02-11T23:54:02.875Z,98580.97
2023-02-11T23:56:30.388Z,98576.44
2023-02-11T23:58:58.742Z,98579.27
